Nearby METAR Reports

 

KCOE - Coeur D'alene, Idaho, USA
Distance from station: SSE 4mi, 7km
Updated: Thu, 21-Jun-2018 10:56pm PDT
Rain, Overcast
Rain, Overcast
 Wind from S
Wind: S 10 mph , 17 km/h
Temperature: 61°F , 16°C
Dew Point: 57°F , 14°C
Humidity: 88%
Barometer: 30.03 inHg , 1016.9 hPa
Summary: Rain
Clouds: Overcast
Visibility: 10 miles , 16 km
Cloud details: Few Clouds 3300 ft
Partly cloudy 4000 ft
Overcast 5000 ft
2018/06/22 05:56 KCOE 220556Z AUTO 18009KT 10SM RA FEW033 SCT040 OVC050 16/14 A3003 RMK AO2 LTG DSNT S-W SLPNO 6//// T01560144 PNO $
KSFF - Spokane/Felts, Washington, USA
Distance from station: WSW 24mi, 39km
Updated: Thu, 21-Jun-2018 11:53pm PDT
Overcast
Overcast
 Wind from ENE
Wind: ENE 7 mph , 11 km/h
Temperature: 63°F , 17°C
Dew Point: 61°F , 16°C
Humidity: 94%
Barometer: 29.98 inHg , 1015.2 hPa
Clouds: Overcast
Visibility: 10 miles , 16 km
Cloud details: Few Clouds 6000 ft
Mostly cloudy 7500 ft
Overcast 10000 ft
2018/06/22 06:53 KSFF 220653Z AUTO 06006KT 10SM FEW060 BKN075 OVC100 17/16 A2998 RMK AO2 RAB04E17 SLP141 P0000 T01670156
 
KDEW - Deer Park, Washington, USA
Distance from station: WNW 29mi, 47km
Updated: Thu, 21-Jun-2018 11:53pm PDT
Few Clouds
Few Clouds
 Wind from S
Wind: S 8 mph , 13 km/h
Temperature: 61°F , 16°C
Dew Point: 59°F , 15°C
Humidity: 94%
Barometer: 29.96 inHg , 1014.6 hPa
Clouds: Few Clouds
Visibility: 10 miles , 16 km
Cloud details: Few Clouds 11000 ft
2018/06/22 06:53 KDEW 220653Z AUTO 18007KT 10SM FEW110 16/15 A2996 RMK AO2 WSHFT 0619 RAE35 SLP137 P0005 T01610150
KSZT - Wall/Sandpoint, Idaho, USA
Distance from station: NNE 35mi, 56km
Updated: Thu, 21-Jun-2018 11:55pm PDT
Mostly cloudy
Mostly cloudy
 Wind from S
Wind: S 7 mph , 11 km/h
Temperature: 61°F , 16°C
Dew Point: 57°F , 14°C
Humidity: 88%
Barometer: 29.98 inHg , 1015.2 hPa
Clouds: Mostly cloudy
Visibility: 10 miles , 16 km
Cloud details: Mostly cloudy 12000 ft
2018/06/22 06:55 KSZT 220655Z AUTO 19006KT 10SM BKN120 16/14 A2998 RMK AO2
 
KGEG - Spokane/Metro, Washington, USA
Distance from station: WSW 35mi, 57km
Updated: Thu, 21-Jun-2018 11:53pm PDT
Mostly cloudy
Mostly cloudy
 Wind from SSE
Wind: SSE 9 mph , 15 km/h
Temperature: 63°F , 17°C
Dew Point: 59°F , 15°C
Humidity: 88%
Barometer: 29.99 inHg , 1015.6 hPa
Clouds: Mostly cloudy
Visibility: 10 miles , 16 km
Cloud details: Partly cloudy 7500 ft
Mostly cloudy 23000 ft
2018/06/22 06:53 KGEG 220653Z 16008KT 10SM SCT075 BKN230 17/15 A2999 RMK AO2 SLP144 T01720150
KSKA - Fairchild Afb, Washington, USA
Distance from station: WSW 40mi, 65km
Updated: Thu, 21-Jun-2018 11:58pm PDT
Clear
Clear
 Wind from S
Wind: S 6 mph , 9 km/h
Temperature: 61°F , 16°C
Dew Point: 61°F , 16°C
Humidity: 100%
Barometer: 29.99 inHg , 1015.6 hPa
Clouds: Clear
Visibility: 10 miles , 16 km
2018/06/22 06:58 KSKA 220658Z AUTO 17005KT 10SM CLR 16/16 A2999 RMK AO2 SLP149 T01570157 $